Time;durP1;ratioP1;P1;durP2;ratioP2;P2;SDS_P1;SDS_P2;PMS_P1;PMS_P2;Temp;Humidity;BMP_temperature;BMP_pressure;BME280_temperature;BME280_humidity;BME280_pressure;Samples;Min_cycle;Max_cycle;Signal;HPM_P1;HPM_P2
2021/08/16 00:02:08;;;;;;;18.30;3.80;;;;;;;19.17;70.92;101007.84;4969172;28;20470;-46
2021/08/16 00:04:34;;;;;;;18.42;3.30;;;;;;;19.18;71.25;101006.94;4965907;28;20474;-53
2021/08/16 00:06:59;;;;;;;20.05;3.78;;;;;;;19.20;71.23;101011.31;4981572;28;20682;-46
2021/08/16 00:09:25;;;;;;;18.13;3.95;;;;;;;19.21;71.08;101007.75;4961298;28;20026;-47
2021/08/16 00:11:50;;;;;;;18.73;3.50;;;;;;;19.26;70.86;101013.84;4965169;28;20033;-49
2021/08/16 00:14:16;;;;;;;15.68;3.38;;;;;;;19.25;70.85;101004.16;4966584;28;20022;-47
2021/08/16 00:16:41;;;;;;;17.30;3.60;;;;;;;19.22;71.27;101006.84;4966211;28;20472;-47
2021/08/16 00:19:07;;;;;;;20.20;3.60;;;;;;;19.21;70.59;100996.34;4956890;28;20541;-48
2021/08/16 00:21:33;;;;;;;14.13;3.10;;;;;;;19.21;70.66;101002.47;4964327;28;20085;-50
2021/08/16 00:23:58;;;;;;;17.60;3.45;;;;;;;19.19;70.52;100998.13;4963880;28;20057;-49
2021/08/16 00:26:23;;;;;;;13.25;3.40;;;;;;;19.20;70.58;100999.88;4964700;28;20537;-50
2021/08/16 00:28:49;;;;;;;15.93;3.60;;;;;;;19.17;70.84;100999.91;4966132;28;20860;-47
2021/08/16 00:31:14;;;;;;;17.02;3.78;;;;;;;19.16;70.94;100995.53;4963695;28;20524;-46
2021/08/16 00:33:39;;;;;;;16.33;3.63;;;;;;;19.22;71.05;100988.34;4971654;28;20030;-48
2021/08/16 00:36:05;;;;;;;16.02;3.50;;;;;;;19.19;70.67;100988.44;4965751;28;20025;-48
2021/08/16 00:38:30;;;;;;;14.32;3.67;;;;;;;19.11;71.02;100985.06;4957708;28;20030;-49
2021/08/16 00:40:56;;;;;;;18.48;3.20;;;;;;;19.12;71.17;100992.09;4968570;28;20038;-47
2021/08/16 00:43:21;;;;;;;22.02;3.55;;;;;;;19.14;71.29;100992.94;4967318;28;20068;-49
2021/08/16 00:45:47;;;;;;;17.02;3.30;;;;;;;19.12;71.21;100997.38;4969596;28;20293;-47
2021/08/16 00:48:12;;;;;;;19.83;3.75;;;;;;;19.13;71.30;100999.13;4963873;28;20447;-47
2021/08/16 00:50:38;;;;;;;21.83;3.53;;;;;;;19.10;71.39;100995.66;4965254;28;20038;-46
2021/08/16 00:53:04;;;;;;;14.45;3.00;;;;;;;19.05;71.40;100990.47;4955954;28;20522;-48
2021/08/16 00:55:30;;;;;;;17.20;3.08;;;;;;;19.05;71.61;100995.75;4982700;28;20105;-47
2021/08/16 00:57:55;;;;;;;17.95;3.15;;;;;;;18.99;71.71;100999.38;4971176;28;20438;-48
2021/08/16 01:00:20;;;;;;;12.10;2.95;;;;;;;19.02;71.65;100991.41;4964284;28;20133;-47
2021/08/16 01:02:46;;;;;;;13.63;3.13;;;;;;;18.99;71.49;100990.59;4968606;28;20034;-48
2021/08/16 01:05:14;;;;;;;14.80;3.65;;;;;;;18.98;72.21;100988.84;4962945;28;20614;-48
2021/08/16 01:07:41;;;;;;;15.35;3.40;;;;;;;18.94;72.10;100990.69;4981564;28;20208;-49
2021/08/16 01:10:07;;;;;;;17.42;3.20;;;;;;;18.90;72.14;100986.38;4956920;28;20026;-47
2021/08/16 01:12:34;;;;;;;13.60;2.72;;;;;;;18.91;72.16;100989.84;4967111;28;20038;-48
2021/08/16 01:15:00;;;;;;;17.63;3.10;;;;;;;18.94;71.87;100988.03;4961289;28;20031;-48
2021/08/16 01:17:26;;;;;;;17.23;3.10;;;;;;;18.92;71.88;100984.53;4970557;28;20033;-48
2021/08/16 01:19:51;;;;;;;15.90;3.20;;;;;;;18.97;71.84;100987.09;4967098;28;20030;-49
2021/08/16 01:22:18;;;;;;;13.90;3.30;;;;;;;19.03;71.63;100984.31;4970677;28;20483;-48
2021/08/16 01:24:43;;;;;;;16.33;2.92;;;;;;;19.03;71.84;100985.19;4972303;28;20057;-46
2021/08/16 01:27:10;;;;;;;14.85;3.20;;;;;;;19.03;71.24;100987.84;4964308;28;20031;-47
2021/08/16 01:29:36;;;;;;;15.85;3.08;;;;;;;19.07;71.20;100988.66;4971099;28;20450;-46
2021/08/16 01:32:02;;;;;;;14.05;3.08;;;;;;;19.08;71.08;100987.78;4970625;28;20029;-48
2021/08/16 01:34:29;;;;;;;11.68;2.63;;;;;;;19.07;70.98;100985.16;4968653;28;20408;-50
2021/08/16 01:36:55;;;;;;;12.55;2.80;;;;;;;19.09;71.20;100992.13;4963657;28;20637;-46
2021/08/16 01:39:20;;;;;;;15.73;2.85;;;;;;;19.07;71.39;100985.16;4965348;28;20040;-46
2021/08/16 01:41:47;;;;;;;12.27;2.80;;;;;;;19.05;71.71;100982.53;4972950;28;20035;-48
2021/08/16 01:44:18;;;;;;;14.75;2.67;;;;;;;18.98;72.07;100980.91;4969501;28;20027;-46
2021/08/16 01:46:44;;;;;;;14.30;3.30;;;;;;;18.98;72.04;100978.28;4986019;28;20026;-49
2021/08/16 01:49:12;;;;;;;15.50;3.00;;;;;;;18.95;71.99;100975.69;4968461;28;20649;-50
2021/08/16 01:51:39;;;;;;;13.95;3.25;;;;;;;18.95;71.64;100976.56;4957064;28;20600;-49
2021/08/16 01:54:05;;;;;;;15.18;2.97;;;;;;;18.95;71.85;100975.69;4964070;28;20031;-46
2021/08/16 01:56:31;;;;;;;17.45;3.15;;;;;;;18.98;71.66;100978.28;4968794;28;20030;-48
2021/08/16 01:58:56;;;;;;;10.93;2.88;;;;;;;18.99;71.98;100978.25;4968902;28;20026;-48
2021/08/16 02:01:21;;;;;;;15.60;3.13;;;;;;;19.04;71.41;100978.16;4967953;28;20499;-48
2021/08/16 02:03:47;;;;;;;16.17;3.17;;;;;;;19.08;71.51;100984.25;4969000;28;20145;-49
2021/08/16 02:06:14;;;;;;;13.48;3.00;;;;;;;19.07;70.87;100977.22;4966127;28;20030;-48
2021/08/16 02:08:40;;;;;;;13.82;3.20;;;;;;;19.13;70.74;100979.75;4963946;28;20037;-47
2021/08/16 02:11:05;;;;;;;12.90;2.90;;;;;;;19.15;70.94;100977.97;4964559;28;20022;-48
2021/08/16 02:13:30;;;;;;;15.15;3.30;;;;;;;19.14;70.40;100974.44;4967255;28;20469;-48
2021/08/16 02:15:56;;;;;;;14.48;2.88;;;;;;;19.15;70.71;100972.69;4972826;28;20783;-50
2021/08/16 02:18:21;;;;;;;11.85;2.90;;;;;;;19.19;70.61;100977.84;4955846;28;20064;-46
2021/08/16 02:20:46;;;;;;;11.65;3.00;;;;;;;19.17;71.38;100974.38;4970473;28;20100;-51
2021/08/16 02:23:12;;;;;;;11.30;2.80;;;;;;;19.18;70.90;100978.75;4967599;28;20588;-51
2021/08/16 02:25:38;;;;;;;17.02;3.25;;;;;;;19.18;70.97;100976.13;4966893;28;21296;-47
2021/08/16 02:28:03;;;;;;;12.32;3.03;;;;;;;19.14;71.04;100984.13;4964532;28;20042;-46
2021/08/16 02:30:30;;;;;;;17.73;3.33;;;;;;;19.12;71.33;100986.81;4967774;28;20281;-48
2021/08/16 02:32:55;;;;;;;11.10;3.00;;;;;;;19.13;71.18;100990.31;4966007;28;20113;-50
2021/08/16 02:35:20;;;;;;;14.27;2.92;;;;;;;19.11;71.47;100979.78;4961237;28;20125;-51
2021/08/16 02:37:46;;;;;;;15.40;2.78;;;;;;;19.10;71.14;100985.97;4969323;28;20117;-50
2021/08/16 02:40:12;;;;;;;13.40;2.60;;;;;;;19.04;71.49;100976.38;4970196;28;20117;-49
2021/08/16 02:42:38;;;;;;;10.18;2.70;;;;;;;19.04;71.32;100979.03;4980192;28;20488;-47
2021/08/16 02:45:03;;;;;;;13.35;3.00;;;;;;;18.99;71.81;100980.00;4962726;28;20030;-49
2021/08/16 02:47:29;;;;;;;13.85;2.85;;;;;;;19.00;71.97;100973.84;4962450;28;20037;-48
2021/08/16 02:49:54;;;;;;;18.67;3.15;;;;;;;19.01;71.66;100978.22;4966309;28;20443;-50
2021/08/16 02:52:20;;;;;;;16.70;2.90;;;;;;;18.98;72.14;100981.78;4959264;28;20165;-48
2021/08/16 02:54:46;;;;;;;16.25;3.15;;;;;;;18.95;72.68;100971.28;4969820;28;20097;-50
2021/08/16 02:57:12;;;;;;;12.23;3.03;;;;;;;18.94;72.95;100977.47;4961043;28;20026;-49
2021/08/16 02:59:39;;;;;;;13.32;3.22;;;;;;;18.95;72.80;100970.41;4966360;28;20110;-48
2021/08/16 03:02:05;;;;;;;14.60;2.95;;;;;;;18.96;72.80;100972.16;4961236;28;20038;-48
2021/08/16 03:04:30;;;;;;;13.95;3.25;;;;;;;18.93;72.57;100975.72;4961513;28;20073;-48
2021/08/16 03:06:55;;;;;;;16.02;3.22;;;;;;;19.00;72.54;100968.56;4966549;28;20026;-46
2021/08/16 03:09:24;;;;;;;12.88;3.10;;;;;;;19.02;72.71;100961.47;4968734;28;20124;-47
2021/08/16 03:11:49;;;;;;;14.57;3.15;;;;;;;19.04;72.34;100971.09;4967235;28;20404;-46
2021/08/16 03:14:15;;;;;;;13.25;2.78;;;;;;;18.98;72.49;100965.94;4959810;28;20038;-47
2021/08/16 03:16:40;;;;;;;10.27;2.67;;;;;;;18.93;72.66;100959.00;4967800;28;20389;-46
2021/08/16 03:19:06;;;;;;;12.10;2.83;;;;;;;18.90;73.22;100961.72;4967697;28;20418;-48
2021/08/16 03:21:31;;;;;;;17.08;3.03;;;;;;;18.89;72.72;100952.91;4963396;28;20473;-48
2021/08/16 03:23:56;;;;;;;14.70;3.10;;;;;;;18.86;74.04;100954.72;4971063;28;20614;-50
2021/08/16 03:26:21;;;;;;;14.48;3.35;;;;;;;18.88;72.63;100959.09;4962420;28;20061;-48
2021/08/16 03:28:47;;;;;;;12.35;2.88;;;;;;;18.85;72.58;100959.13;4966405;28;20132;-51
2021/08/16 03:31:12;;;;;;;9.40;2.70;;;;;;;18.88;72.88;100947.66;4968925;28;20049;-47
2021/08/16 03:33:38;;;;;;;13.10;2.97;;;;;;;18.91;72.77;100959.03;4964965;28;20477;-51
2021/08/16 03:36:03;;;;;;;15.38;2.80;;;;;;;18.92;72.56;100952.84;4973123;28;20033;-48
2021/08/16 03:38:29;;;;;;;10.98;2.65;;;;;;;18.93;72.97;100951.06;4961407;28;20101;-48
2021/08/16 03:40:54;;;;;;;9.70;2.80;;;;;;;18.94;72.54;100958.97;4964588;28;20054;-47
2021/08/16 03:43:19;;;;;;;12.90;2.97;;;;;;;18.93;73.34;100951.06;4965034;28;20116;-50
2021/08/16 03:45:46;;;;;;;14.48;3.05;;;;;;;18.92;73.59;100958.13;4967473;28;20104;-47
2021/08/16 03:48:11;;;;;;;12.18;2.90;;;;;;;18.91;73.64;100953.75;4957660;28;20362;-54
2021/08/16 03:50:36;;;;;;;7.65;2.63;;;;;;;18.86;74.14;100944.16;4968243;28;20091;-50
2021/08/16 03:53:05;;;;;;;15.90;3.10;;;;;;;18.85;73.48;100945.06;4963710;28;20623;-51
2021/08/16 03:55:31;;;;;;;12.77;3.00;;;;;;;18.83;73.47;100936.31;4966997;28;20537;-52
2021/08/16 03:57:56;;;;;;;11.70;2.95;;;;;;;18.82;73.26;100930.16;4962318;28;20022;-49
2021/08/16 04:00:22;;;;;;;17.08;3.30;;;;;;;18.78;73.26;100933.78;4963631;28;20417;-45
2021/08/16 04:02:48;;;;;;;9.43;2.72;;;;;;;18.79;73.73;100935.47;4964113;28;20513;-50
2021/08/16 04:05:13;;;;;;;12.10;2.85;;;;;;;18.82;74.04;100938.09;4961150;28;20042;-47
2021/08/16 04:07:41;;;;;;;14.05;3.05;;;;;;;18.77;74.38;100945.22;4967128;28;20030;-46
2021/08/16 04:10:07;;;;;;;12.75;3.10;;;;;;;18.81;73.70;100946.91;4968103;28;20042;-46
2021/08/16 04:12:33;;;;;;;14.88;3.17;;;;;;;18.79;74.22;100946.03;4965437;28;21317;-53
2021/08/16 04:14:58;;;;;;;13.02;3.10;;;;;;;18.74;74.82;100947.91;4963992;28;20509;-46
2021/08/16 04:17:23;;;;;;;16.00;3.38;;;;;;;18.70;75.66;100942.72;4965412;28;20625;-50
2021/08/16 04:19:48;;;;;;;16.60;4.10;;;;;;;18.58;78.00;100949.97;4962380;28;20473;-50
2021/08/16 04:22:14;;;;;;;18.38;4.38;;;;;;;18.43;79.14;100944.06;4960724;28;20529;-47
2021/08/16 04:24:39;;;;;;;19.60;4.80;;;;;;;18.33;80.06;100938.06;4966387;28;20031;-47
2021/08/16 04:27:05;;;;;;;16.23;4.28;;;;;;;18.20;80.83;100940.06;4962139;28;20146;-48
2021/08/16 04:29:30;;;;;;;14.27;4.00;;;;;;;18.17;80.37;100947.16;4963983;28;20046;-46
2021/08/16 04:31:56;;;;;;;14.00;4.15;;;;;;;18.14;80.34;100939.28;4962001;28;20426;-47
2021/08/16 04:34:22;;;;;;;15.80;4.10;;;;;;;18.11;80.49;100942.00;4962341;28;20030;-47
2021/08/16 04:36:48;;;;;;;14.43;3.90;;;;;;;18.06;80.89;100943.81;4959879;28;20033;-48
2021/08/16 04:39:13;;;;;;;18.83;4.78;;;;;;;18.05;81.13;100950.84;4961161;28;20070;-47
2021/08/16 04:41:38;;;;;;;14.82;3.85;;;;;;;18.03;80.84;100946.50;4967026;28;20034;-45
2021/08/16 04:44:04;;;;;;;10.10;3.60;;;;;;;18.01;81.11;100958.84;4963371;28;20132;-50
2021/08/16 04:46:29;;;;;;;11.38;3.30;;;;;;;17.98;81.31;100959.78;4965510;28;20035;-49
2021/08/16 04:48:54;;;;;;;8.98;2.97;;;;;;;17.98;80.84;100949.22;4963501;28;20045;-50
2021/08/16 04:51:20;;;;;;;10.18;3.05;;;;;;;17.91;80.97;100954.59;4962711;28;20490;-48
2021/08/16 04:53:45;;;;;;;6.65;2.83;;;;;;;17.89;81.31;100953.75;4970102;28;20034;-47
2021/08/16 04:56:10;;;;;;;13.00;3.30;;;;;;;17.89;81.27;100959.03;4958830;28;20475;-46
2021/08/16 04:58:36;;;;;;;8.90;2.83;;;;;;;17.88;81.35;100959.91;4966123;28;20394;-50
2021/08/16 05:01:01;;;;;;;9.50;2.90;;;;;;;17.86;80.69;100957.31;4963865;28;20034;-45
2021/08/16 05:03:26;;;;;;;8.50;2.95;;;;;;;17.87;80.78;100960.84;4962718;28;20184;-45
2021/08/16 05:05:54;;;;;;;10.70;3.22;;;;;;;17.87;80.81;100960.84;4970709;28;20125;-46
2021/08/16 05:08:19;;;;;;;9.50;2.90;;;;;;;17.92;79.99;100959.88;4963498;28;20027;-46
2021/08/16 05:10:46;;;;;;;5.85;2.67;;;;;;;17.93;79.80;100960.75;4962959;28;20069;-47
2021/08/16 05:13:11;;;;;;;9.07;2.83;;;;;;;17.88;79.98;100962.56;4964448;28;20482;-47
2021/08/16 05:15:37;;;;;;;9.32;2.80;;;;;;;17.85;79.91;100966.13;4965195;28;20446;-46
2021/08/16 05:18:03;;;;;;;7.65;3.00;;;;;;;17.83;80.00;100968.78;4969926;28;20073;-49
2021/08/16 05:20:29;;;;;;;7.18;2.70;;;;;;;17.84;80.26;100969.66;4962564;28;20050;-48
2021/08/16 05:22:54;;;;;;;6.18;2.70;;;;;;;17.74;80.40;100970.69;4963344;28;20130;-47
2021/08/16 05:25:20;;;;;;;5.15;2.90;;;;;;;17.73;80.49;100961.03;4963996;28;20388;-47
2021/08/16 05:27:46;;;;;;;8.50;2.92;;;;;;;17.80;80.16;100970.59;4956475;28;20058;-48
2021/08/16 05:30:12;;;;;;;8.18;3.90;;;;;;;17.76;80.18;100969.75;4962063;28;20145;-48
2021/08/16 05:32:37;;;;;;;12.63;4.13;;;;;;;17.69;80.54;100976.00;4968540;28;20037;-48
2021/08/16 05:35:04;;;;;;;10.32;4.50;;;;;;;17.63;80.51;100985.75;4960988;28;20056;-50
2021/08/16 05:37:30;;;;;;;11.00;4.10;;;;;;;17.61;80.63;100992.84;4963992;28;20031;-50
2021/08/16 05:39:55;;;;;;;10.48;4.20;;;;;;;17.58;80.27;100998.97;4966325;28;20101;-49
2021/08/16 05:42:20;;;;;;;11.50;4.50;;;;;;;17.56;81.18;101005.19;4963000;28;20034;-46
2021/08/16 05:44:46;;;;;;;12.07;3.80;;;;;;;17.59;80.53;101003.38;4967322;28;20175;-46
2021/08/16 05:47:11;;;;;;;12.57;4.32;;;;;;;17.49;80.67;100996.50;4962531;28;20489;-46
2021/08/16 05:49:36;;;;;;;13.88;3.90;;;;;;;17.55;80.62;101001.69;4968181;28;20556;-46
2021/08/16 05:52:02;;;;;;;12.35;3.88;;;;;;;17.60;80.99;101002.53;4965922;28;20118;-47
2021/08/16 05:54:27;;;;;;;12.60;3.95;;;;;;;17.60;79.83;101002.53;4965342;28;20127;-48
2021/08/16 05:56:53;;;;;;;13.40;3.63;;;;;;;17.63;79.63;100998.94;4962901;28;20035;-47
2021/08/16 05:59:18;;;;;;;9.30;3.63;;;;;;;17.69;79.02;100998.88;4965916;28;20493;-46
2021/08/16 06:01:43;;;;;;;14.27;4.13;;;;;;;17.82;78.98;101003.94;4963283;28;20149;-46
2021/08/16 06:04:09;;;;;;;10.77;3.72;;;;;;;18.00;78.17;101001.94;4967195;28;20054;-48
2021/08/16 06:06:35;;;;;;;8.13;3.72;;;;;;;18.05;78.27;101006.25;4962719;28;20759;-47
2021/08/16 06:09:01;;;;;;;11.73;3.35;;;;;;;18.10;77.68;101003.56;4970948;28;20481;-48
2021/08/16 06:11:27;;;;;;;11.43;3.40;;;;;;;18.00;78.07;101013.38;4971325;28;20034;-50
2021/08/16 06:13:53;;;;;;;12.50;3.80;;;;;;;17.90;77.87;101011.75;4971262;28;20034;-46
2021/08/16 06:16:20;;;;;;;10.50;4.07;;;;;;;17.80;77.86;101015.44;4964639;28;20387;-53
2021/08/16 06:18:45;;;;;;;9.45;4.30;;;;;;;17.75;79.28;101018.13;4964178;28;20538;-47
2021/08/16 06:21:11;;;;;;;8.48;3.92;;;;;;;17.80;77.91;101018.94;4960753;28;20031;-48
2021/08/16 06:23:38;;;;;;;14.88;4.38;;;;;;;17.75;78.09;101035.69;4970322;28;20152;-49
2021/08/16 06:26:04;;;;;;;10.85;3.78;;;;;;;17.69;78.27;101034.00;4966581;28;20664;-46
2021/08/16 06:28:30;;;;;;;12.40;4.35;;;;;;;17.57;78.64;101028.88;4984497;28;20383;-47
2021/08/16 06:30:55;;;;;;;9.80;4.15;;;;;;;17.32;78.89;101041.47;4963182;28;21772;-47
2021/08/16 06:33:21;;;;;;;9.30;4.28;;;;;;;17.24;79.24;101045.97;4970046;28;20434;-48
2021/08/16 06:35:47;;;;;;;10.45;3.80;;;;;;;17.17;78.52;101044.28;4964908;28;20050;-47
2021/08/16 06:38:21;;;;;;;10.00;4.30;;;;;;;17.13;79.25;101050.50;4960698;28;20034;-50
2021/08/16 06:40:50;;;;;;;;;;;;;;;17.15;79.56;101053.09;4967778;28;20038;-47
2021/08/16 06:43:16;;;;;;;11.65;4.70;;;;;;;17.14;80.07;101061.91;4966198;28;20267;-46
2021/08/16 06:45:41;;;;;;;12.38;4.75;;;;;;;17.13;79.81;101065.44;4965490;28;20065;-46
2021/08/16 06:48:06;;;;;;;11.73;4.20;;;;;;;17.12;79.71;101068.94;4965122;28;20042;-46
2021/08/16 06:50:32;;;;;;;12.02;4.57;;;;;;;17.00;80.14;101073.47;4970878;28;20031;-46
2021/08/16 06:52:57;;;;;;;8.85;4.40;;;;;;;16.92;79.71;101077.91;4967835;28;20034;-46
2021/08/16 06:55:23;;;;;;;10.43;4.53;;;;;;;16.93;79.61;101084.06;4979421;28;20034;-47
2021/08/16 06:57:48;;;;;;;15.68;4.80;;;;;;;16.87;79.63;101085.00;4964438;28;20021;-48
2021/08/16 07:00:15;;;;;;;9.25;4.20;;;;;;;16.90;80.00;101079.69;4966989;28;20619;-47
2021/08/16 07:02:41;;;;;;;10.10;3.92;;;;;;;16.95;79.33;101085.81;4972895;28;20061;-47
2021/08/16 07:05:07;;;;;;;13.20;4.07;;;;;;;17.00;78.93;101089.25;4958159;28;20353;-49
2021/08/16 07:07:33;;;;;;;9.80;4.13;;;;;;;17.01;78.91;101090.13;4962591;28;20054;-47
2021/08/16 07:09:58;;;;;;;11.95;4.20;;;;;;;17.00;78.50;101083.13;4966466;28;20038;-50
2021/08/16 07:12:24;;;;;;;13.25;4.05;;;;;;;17.01;77.77;101082.22;4964338;28;20026;-47
2021/08/16 07:14:50;;;;;;;10.27;4.32;;;;;;;17.12;77.64;101082.13;4966798;28;20326;-48
2021/08/16 07:17:15;;;;;;;9.25;3.95;;;;;;;17.34;78.73;101092.41;4961019;28;20565;-47
2021/08/16 07:19:40;;;;;;;9.18;3.50;;;;;;;17.65;76.57;101097.38;4970374;28;20026;-47
2021/08/16 07:22:06;;;;;;;13.73;3.67;;;;;;;17.87;74.93;101088.28;4962774;28;20049;-51
2021/08/16 07:24:31;;;;;;;11.25;3.88;;;;;;;17.86;75.44;101093.59;4964014;28;20436;-48
2021/08/16 07:26:57;;;;;;;10.55;3.70;;;;;;;17.87;74.45;101093.56;4965965;28;20026;-50
2021/08/16 07:29:23;;;;;;;11.52;3.72;;;;;;;17.97;74.32;101096.97;4964251;28;20719;-48
2021/08/16 07:31:49;;;;;;;5.80;3.22;;;;;;;18.11;74.69;101097.66;4965422;28;20535;-47
2021/08/16 07:34:14;;;;;;;11.25;4.03;;;;;;;18.45;74.88;101103.31;4960779;28;20027;-49
2021/08/16 07:36:39;;;;;;;11.57;3.50;;;;;;;18.96;72.10;101101.63;4959318;28;20636;-47
2021/08/16 07:39:05;;;;;;;10.50;3.67;;;;;;;19.03;69.59;101098.81;4966013;28;20788;-46
2021/08/16 07:41:31;;;;;;;9.32;3.63;;;;;;;19.01;69.20;101116.50;4953739;28;20173;-48
2021/08/16 07:43:56;;;;;;;7.75;3.55;;;;;;;18.76;67.05;101112.53;4972080;28;20037;-49
2021/08/16 07:46:21;;;;;;;11.43;4.18;;;;;;;18.67;69.85;101117.94;4963788;28;20457;-46
2021/08/16 07:48:47;;;;;;;11.50;3.80;;;;;;;18.64;69.99;101120.66;4969260;28;20464;-48
2021/08/16 07:51:12;;;;;;;10.73;4.28;;;;;;;18.55;70.28;101119.00;4965607;28;20038;-53
2021/08/16 07:53:38;;;;;;;9.48;3.92;;;;;;;18.53;67.71;101123.44;4964511;28;20133;-47
2021/08/16 07:56:03;;;;;;;11.15;4.40;;;;;;;18.31;68.48;101123.75;4962033;28;20045;-50
2021/08/16 07:58:29;;;;;;;10.68;4.45;;;;;;;18.20;68.02;101124.78;4964341;28;20030;-50
2021/08/16 08:00:54;;;;;;;9.98;4.85;;;;;;;18.21;70.09;101128.28;4969745;28;20036;-48
2021/08/16 08:03:19;;;;;;;11.95;4.60;;;;;;;18.35;69.17;101141.31;4964611;28;20477;-48
2021/08/16 08:05:45;;;;;;;10.20;4.60;;;;;;;18.52;68.71;101136.63;4965226;28;20561;-48
2021/08/16 08:08:10;;;;;;;13.35;4.88;;;;;;;18.51;68.91;101145.44;4966397;28;20045;-50
2021/08/16 08:10:36;;;;;;;13.80;5.35;;;;;;;18.61;67.49;101157.66;4963175;28;20038;-47
2021/08/16 08:13:01;;;;;;;12.65;5.63;;;;;;;18.80;68.84;101145.03;4962542;28;20038;-52
2021/08/16 08:15:27;;;;;;;15.25;5.55;;;;;;;18.81;68.66;101146.78;4968538;28;20065;-50
2021/08/16 08:17:52;;;;;;;13.40;5.60;;;;;;;18.92;66.33;101139.53;4963689;28;20069;-52
2021/08/16 08:20:18;;;;;;;11.27;5.82;;;;;;;19.26;65.16;101148.66;4966819;28;20126;-49
2021/08/16 08:22:43;;;;;;;12.75;5.78;;;;;;;19.67;66.15;101155.84;4965002;28;20026;-49
2021/08/16 08:25:09;;;;;;;13.25;6.00;;;;;;;19.69;61.43;101159.34;4976627;28;20165;-46
2021/08/16 08:27:34;;;;;;;11.93;5.63;;;;;;;19.73;61.71;101155.72;4965542;28;20755;-50
2021/08/16 08:30:00;;;;;;;14.57;5.82;;;;;;;19.75;63.56;101174.22;4961973;28;20081;-47
2021/08/16 08:32:25;;;;;;;13.82;6.40;;;;;;;19.77;64.69;101167.09;4967226;28;20562;-51
2021/08/16 08:34:51;;;;;;;16.67;6.18;;;;;;;19.90;63.09;101165.09;4964203;28;21312;-51
2021/08/16 08:37:17;;;;;;;15.77;6.20;;;;;;;20.06;63.16;101170.06;4965053;28;20342;-50
2021/08/16 08:39:46;;;;;;;16.67;6.22;;;;;;;19.96;62.60;101164.97;4966458;28;20026;-51
2021/08/16 08:42:12;;;;;;;17.08;6.30;;;;;;;19.61;63.48;101184.19;4958211;28;20406;-47
2021/08/16 08:44:40;;;;;;;14.52;5.88;;;;;;;19.13;63.72;101184.13;4961676;28;20843;-48
2021/08/16 08:47:06;;;;;;;17.70;6.32;;;;;;;18.85;65.40;101185.44;4959703;28;20069;-47
2021/08/16 08:49:32;;;;;;;16.27;7.20;;;;;;;18.32;69.52;101192.34;4967787;28;20036;-51
2021/08/16 08:51:58;;;;;;;13.70;6.55;;;;;;;18.05;68.18;101198.84;4966000;28;20104;-51
2021/08/16 08:54:23;;;;;;;20.15;7.70;;;;;;;17.74;70.41;101202.75;4965801;28;20026;-48
2021/08/16 08:56:49;;;;;;;19.95;8.00;;;;;;;17.60;72.77;101204.59;4957390;28;20121;-49
2021/08/16 08:59:14;;;;;;;15.32;7.50;;;;;;;17.42;73.25;101213.56;4963069;28;20041;-49
2021/08/16 09:01:59;;;;;;;20.30;7.88;;;;;;;17.21;72.65;101222.53;4962873;28;20078;-49
2021/08/16 09:04:25;;;;;;;21.77;8.77;;;;;;;17.14;74.38;101215.56;4963814;28;20441;-47
2021/08/16 09:06:50;;;;;;;21.10;9.15;;;;;;;17.14;75.56;101217.34;4961890;28;20027;-50
2021/08/16 09:09:16;;;;;;;19.92;8.70;;;;;;;17.09;73.99;101220.00;4961734;28;20058;-47
2021/08/16 09:11:52;;;;;;;20.77;8.27;;;;;;;17.23;75.01;101218.13;4962287;28;20478;-49
2021/08/16 09:14:18;;;;;;;24.17;9.15;;;;;;;17.26;75.44;101223.34;4963156;28;20822;-47
2021/08/16 09:16:46;;;;;;;28.48;9.10;;;;;;;17.40;74.77;101231.16;4961097;28;20105;-48
2021/08/16 09:19:17;;;;;;;22.55;9.27;;;;;;;17.58;75.20;101224.84;4965173;28;20038;-48
2021/08/16 09:21:47;;;;;;;19.60;8.40;;;;;;;18.11;73.54;101227.78;4970340;28;21237;-52
2021/08/16 09:24:12;;;;;;;24.95;9.35;;;;;;;18.63;72.37;101233.31;4960415;28;20026;-50
2021/08/16 09:26:42;;;;;;;19.98;8.02;;;;;;;19.16;71.45;101231.63;4961422;28;20179;-48
2021/08/16 09:29:13;;;;;;;17.98;8.02;;;;;;;19.55;68.66;101243.34;4963730;28;20047;-52
2021/08/16 09:31:53;;;;;;;17.50;7.20;;;;;;;19.95;65.31;101232.00;4960908;28;20557;-47
2021/08/16 09:34:42;;;;;;;19.17;7.20;;;;;;;20.24;63.44;101234.97;4968475;28;20037;-50
2021/08/16 09:37:20;;;;;;;14.35;6.72;;;;;;;20.76;63.62;101229.44;4960474;28;20034;-49
2021/08/16 09:39:45;;;;;;;14.90;6.22;;;;;;;20.92;60.97;101224.66;4971097;28;20034;-50
2021/08/16 09:42:11;;;;;;;14.35;5.47;;;;;;;21.00;61.29;101236.81;4966273;28;20393;-50
2021/08/16 09:44:49;;;;;;;13.25;5.90;;;;;;;21.17;61.68;101235.56;4966411;28;20038;-49
2021/08/16 09:47:15;;;;;;;11.40;4.68;;;;;;;21.16;60.40;101229.41;4966966;28;20120;-47
2021/08/16 09:49:41;;;;;;;11.15;4.75;;;;;;;20.91;61.20;101233.53;4957742;28;20973;-51
2021/08/16 09:52:09;;;;;;;9.57;3.88;;;;;;;20.80;60.49;101249.66;4969646;28;20133;-49
2021/08/16 09:54:35;;;;;;;9.05;3.80;;;;;;;20.83;59.50;101252.25;4962992;28;20035;-51
2021/08/16 09:57:02;;;;;;;9.95;4.10;;;;;;;20.77;57.68;101249.72;4967325;28;20588;-49
2021/08/16 09:59:29;;;;;;;8.77;3.85;;;;;;;20.32;58.41;101255.97;4970506;28;20026;-49
2021/08/16 10:01:55;;;;;;;10.85;4.30;;;;;;;20.22;60.01;101260.59;4967769;28;20026;-49
2021/08/16 10:04:20;;;;;;;10.52;4.47;;;;;;;20.11;61.47;101268.75;4967387;28;20079;-50
2021/08/16 10:06:46;;;;;;;10.77;4.65;;;;;;;20.22;63.46;101272.06;4967193;28;20414;-50
2021/08/16 10:09:12;;;;;;;8.60;4.25;;;;;;;20.21;60.81;101278.25;4965716;28;20038;-49
2021/08/16 10:11:38;;;;;;;13.93;4.88;;;;;;;20.22;61.17;101273.84;4953959;28;20085;-51
2021/08/16 10:14:03;;;;;;;10.13;4.47;;;;;;;20.39;61.02;101282.34;4966589;28;20519;-49
2021/08/16 10:16:32;;;;;;;13.05;4.22;;;;;;;20.65;58.82;101287.09;4969495;28;20177;-52
2021/08/16 10:19:22;;;;;;;12.65;4.82;;;;;;;20.81;60.55;101296.44;4964165;28;20049;-52
2021/08/16 10:21:48;;;;;;;11.48;4.25;;;;;;;20.45;60.83;101316.66;4961814;28;20046;-48
2021/08/16 10:24:23;;;;;;;10.15;4.38;;;;;;;19.97;64.44;101306.97;4965552;28;20018;-50
2021/08/16 10:27:11;;;;;;;10.50;4.60;;;;;;;19.63;64.77;101309.34;4967459;28;20039;-47
2021/08/16 10:29:39;;;;;;;9.65;4.28;;;;;;;19.43;65.14;101307.00;4962112;28;20609;-47
2021/08/16 10:32:08;;;;;;;9.93;3.95;;;;;;;19.31;66.62;101315.13;4964704;28;20365;-47
2021/08/16 10:34:36;;;;;;;9.00;4.10;;;;;;;19.06;63.87;101333.09;4961311;28;20041;-47
2021/08/16 10:37:09;;;;;;;11.23;4.03;;;;;;;18.57;67.95;101344.31;4949981;28;20501;-47
2021/08/16 10:39:35;;;;;;;14.27;3.50;;;;;;;18.34;66.67;101341.03;4967979;28;20030;-46
2021/08/16 10:42:18;;;;;;;7.60;3.10;;;;;;;18.50;65.94;101344.38;4967607;28;20573;-47
2021/08/16 10:44:51;;;;;;;8.38;3.28;;;;;;;18.53;65.42;101341.69;4966033;28;20490;-46
2021/08/16 10:47:25;;;;;;;8.10;3.50;;;;;;;18.59;66.73;101329.34;4967089;28;20496;-47
2021/08/16 10:50:01;;;;;;;9.50;3.28;;;;;;;18.54;64.38;101331.09;4965987;28;20590;-47
2021/08/16 10:52:27;;;;;;;10.30;3.50;;;;;;;18.59;66.52;101331.97;4951478;28;20061;-46
2021/08/16 10:54:52;;;;;;;11.18;3.25;;;;;;;18.56;64.50;101332.00;4961670;28;20479;-48
2021/08/16 10:57:18;;;;;;;11.30;3.15;;;;;;;18.69;65.13;101322.16;4960312;28;20374;-47
2021/08/16 10:59:43;;;;;;;7.93;3.20;;;;;;;18.77;63.71;101330.88;4962037;28;20027;-47
2021/08/16 11:02:09;;;;;;;8.15;3.35;;;;;;;18.77;65.45;101332.63;4959523;28;20031;-46
2021/08/16 11:04:37;;;;;;;9.40;3.50;;;;;;;19.04;63.41;101332.25;4960683;28;20563;-48
2021/08/16 11:07:04;;;;;;;11.95;4.40;;;;;;;19.09;65.40;101338.34;4962188;28;20044;-50
2021/08/16 11:09:32;;;;;;;13.25;3.63;;;;;;;19.08;64.76;101336.63;4967734;28;20555;-48
2021/08/16 11:12:04;;;;;;;13.10;4.57;;;;;;;19.05;66.60;101339.28;4982593;28;20034;-49
2021/08/16 11:14:41;;;;;;;13.60;4.03;;;;;;;18.93;66.16;101345.63;4948399;28;20307;-48
2021/08/16 11:17:07;;;;;;;13.52;3.60;;;;;;;18.80;63.86;101341.38;4957701;28;20022;-50